CFG1FM EDDS-LSGG
Flight info
| Callsign | CFG1FM |
|---|---|
| Flight time | N/A |
| Altitude | 35000 |
| Route | ROTWE5B/25 ROTWE DCT NATOR DCT TUFTA DCT TIS DCT LMG/N0453F340 DCT GALOF/N0458F350 DCT BAKUP DCT ROXER ROXE2K LECO/21 |
| Aircraft | A321/M-V/N |
Departure
| Time | N/A |
|---|---|
| Airport | Stuttgart Airport (EDDS) |
Arrival
| Time | 2026-02-18 14:35 |
|---|---|
| Airport | Geneva International Airport (LSGG) |
| Time | Latitude | Longitude | Altitude | Speed | Heading |
|---|---|---|---|---|---|
| 2026-02-18 14:12 | 46.81195 | 6.08281 | 36832 ft | 394 kts | 231° |
| 2026-02-18 14:12 | 46.78905 | 6.05962 | 36732 ft | 411 kts | 216° |
| 2026-02-18 14:13 | 46.73619 | 6.02570 | 35422 ft | 417 kts | 213° |
| 2026-02-18 14:13 | 46.70947 | 6.00912 | 34755 ft | 418 kts | 213° |
| 2026-02-18 14:13 | 46.68271 | 5.99246 | 34100 ft | 418 kts | 213° |
| 2026-02-18 14:14 | 46.65633 | 5.97595 | 33399 ft | 419 kts | 213° |
| 2026-02-18 14:14 | 46.62958 | 5.95905 | 32625 ft | 420 kts | 213° |
| 2026-02-18 14:14 | 46.60271 | 5.94182 | 31795 ft | 423 kts | 213° |
| 2026-02-18 14:14 | 46.57579 | 5.92429 | 30958 ft | 426 kts | 213° |
| 2026-02-18 14:15 | 46.54871 | 5.90638 | 30107 ft | 429 kts | 213° |
| 2026-02-18 14:15 | 46.49415 | 5.86948 | 28136 ft | 435 kts | 213° |
| 2026-02-18 14:15 | 46.46672 | 5.85061 | 27151 ft | 438 kts | 213° |
| 2026-02-18 14:16 | 46.41176 | 5.81233 | 25650 ft | 433 kts | 213° |
| 2026-02-18 14:16 | 46.38473 | 5.79343 | 24975 ft | 429 kts | 213° |
| 2026-02-18 14:16 | 46.35802 | 5.77468 | 24298 ft | 425 kts | 213° |
| 2026-02-18 14:17 | 46.30212 | 5.74717 | 22910 ft | 438 kts | 190° |
| 2026-02-18 14:17 | 46.27153 | 5.75103 | 22212 ft | 448 kts | 172° |
| 2026-02-18 14:17 | 46.24243 | 5.76802 | 21557 ft | 456 kts | 154° |
| 2026-02-18 14:18 | 46.21737 | 5.79546 | 20926 ft | 458 kts | 143° |
| 2026-02-18 14:18 | 46.19348 | 5.82547 | 20286 ft | 453 kts | 143° |
| 2026-02-18 14:18 | 46.16991 | 5.85519 | 19720 ft | 448 kts | 143° |
| 2026-02-18 14:18 | 46.14659 | 5.88455 | 19104 ft | 442 kts | 143° |
| 2026-02-18 14:19 | 46.12352 | 5.91349 | 18470 ft | 437 kts | 143° |
| 2026-02-18 14:19 | 46.10068 | 5.94202 | 17898 ft | 431 kts | 142° |
| 2026-02-18 14:19 | 46.08123 | 5.97474 | 17269 ft | 432 kts | 124° |
| 2026-02-18 14:19 | 46.06951 | 6.01433 | 16660 ft | 431 kts | 105° |
| 2026-02-18 14:20 | 46.06674 | 6.05708 | 16076 ft | 429 kts | 85° |
| 2026-02-18 14:20 | 46.07324 | 6.09864 | 15615 ft | 424 kts | 67° |
| 2026-02-18 14:20 | 46.08791 | 6.13498 | 15039 ft | 417 kts | 50° |
| 2026-02-18 14:20 | 46.10599 | 6.16740 | 14377 ft | 414 kts | 48° |
| 2026-02-18 14:21 | 46.14227 | 6.23060 | 13169 ft | 409 kts | 48° |
| 2026-02-18 14:21 | 46.16065 | 6.26235 | 12554 ft | 405 kts | 48° |
| 2026-02-18 14:21 | 46.17864 | 6.29230 | 12236 ft | 393 kts | 44° |
| 2026-02-18 14:22 | 46.19727 | 6.32007 | 12131 ft | 378 kts | 43° |
| 2026-02-18 14:22 | 46.21530 | 6.34669 | 11995 ft | 363 kts | 43° |
| 2026-02-18 14:22 | 46.23252 | 6.37216 | 11639 ft | 348 kts | 43° |
| 2026-02-18 14:22 | 46.24922 | 6.39690 | 11063 ft | 341 kts | 43° |
| 2026-02-18 14:23 | 46.26561 | 6.42142 | 10436 ft | 338 kts | 43° |
| 2026-02-18 14:23 | 46.28169 | 6.44555 | 10132 ft | 324 kts | 43° |
| 2026-02-18 14:23 | 46.29704 | 6.46866 | 9823 ft | 314 kts | 43° |
| 2026-02-18 14:23 | 46.31202 | 6.49127 | 9315 ft | 310 kts | 43° |
| 2026-02-18 14:24 | 46.32694 | 6.51350 | 8804 ft | 307 kts | 43° |
| 2026-02-18 14:24 | 46.34185 | 6.53541 | 8239 ft | 304 kts | 44° |
| 2026-02-18 14:24 | 46.35672 | 6.55685 | 7911 ft | 301 kts | 43° |
| 2026-02-18 14:24 | 46.37170 | 6.57820 | 7869 ft | 303 kts | 43° |
| 2026-02-18 14:25 | 46.40223 | 6.62068 | 7863 ft | 305 kts | 32° |
| 2026-02-18 14:25 | 46.41447 | 6.63019 | 7875 ft | 300 kts | 14° |
| 2026-02-18 14:25 | 46.43461 | 6.63387 | 7875 ft | 288 kts | 347° |
| 2026-02-18 14:26 | 46.45289 | 6.62472 | 7877 ft | 274 kts | 320° |
| 2026-02-18 14:26 | 46.46574 | 6.60582 | 7525 ft | 258 kts | 294° |
| 2026-02-18 14:26 | 46.47043 | 6.58161 | 7069 ft | 247 kts | 265° |
| 2026-02-18 14:26 | 46.46787 | 6.55728 | 6707 ft | 241 kts | 254° |
| 2026-02-18 14:27 | 46.46413 | 6.53430 | 6577 ft | 229 kts | 253° |
| 2026-02-18 14:27 | 46.46051 | 6.51235 | 6452 ft | 218 kts | 253° |
| 2026-02-18 14:27 | 46.45714 | 6.49138 | 6308 ft | 210 kts | 253° |
| 2026-02-18 14:27 | 46.45395 | 6.47096 | 6081 ft | 206 kts | 253° |
| 2026-02-18 14:28 | 46.45079 | 6.45072 | 5800 ft | 206 kts | 253° |
| 2026-02-18 14:28 | 46.44761 | 6.43040 | 5525 ft | 205 kts | 253° |
| 2026-02-18 14:28 | 46.44228 | 6.41179 | 5281 ft | 197 kts | 233° |
| 2026-02-18 14:28 | 46.43340 | 6.39741 | 5029 ft | 194 kts | 225° |
| 2026-02-18 14:29 | 46.41425 | 6.36906 | 4376 ft | 196 kts | 224° |
| 2026-02-18 14:29 | 46.40461 | 6.35476 | 4011 ft | 197 kts | 225° |
| 2026-02-18 14:29 | 46.39500 | 6.34052 | 4004 ft | 205 kts | 225° |
| 2026-02-18 14:30 | 46.38504 | 6.32576 | 4026 ft | 208 kts | 224° |
| 2026-02-18 14:30 | 46.37492 | 6.31079 | 4015 ft | 207 kts | 224° |
| 2026-02-18 14:30 | 46.36482 | 6.29584 | 4010 ft | 208 kts | 224° |
| 2026-02-18 14:30 | 46.35498 | 6.28126 | 4026 ft | 196 kts | 224° |
| 2026-02-18 14:31 | 46.34564 | 6.26746 | 4000 ft | 190 kts | 224° |
| 2026-02-18 14:31 | 46.33650 | 6.25395 | 3848 ft | 183 kts | 223° |
| 2026-02-18 14:31 | 46.32788 | 6.24123 | 3627 ft | 172 kts | 224° |
| 2026-02-18 14:31 | 46.31973 | 6.22920 | 3401 ft | 164 kts | 224° |
| 2026-02-18 14:32 | 46.31193 | 6.21770 | 3206 ft | 155 kts | 224° |
| 2026-02-18 14:32 | 46.30458 | 6.20686 | 2987 ft | 148 kts | 224° |
| 2026-02-18 14:32 | 46.29766 | 6.19666 | 2790 ft | 140 kts | 225° |
| 2026-02-18 14:32 | 46.29088 | 6.18668 | 2559 ft | 136 kts | 225° |
| 2026-02-18 14:33 | 46.27766 | 6.16723 | 2217 ft | 136 kts | 227° |
| 2026-02-18 14:33 | 46.27108 | 6.15736 | 1994 ft | 137 kts | 226° |
| 2026-02-18 14:33 | 46.26446 | 6.14754 | 1826 ft | 137 kts | 226° |
| 2026-02-18 14:34 | 46.25783 | 6.13779 | 1628 ft | 135 kts | 225° |
| 2026-02-18 14:34 | 46.25120 | 6.12824 | 1447 ft | 134 kts | 226° |
| 2026-02-18 14:34 | 46.24475 | 6.11896 | 1369 ft | 122 kts | 226° |
| 2026-02-18 14:34 | 46.24022 | 6.11217 | 1378 ft | 62 kts | 225° |
| 2026-02-18 14:35 | 46.23789 | 6.10876 | 1377 ft | 42 kts | 225° |
| 2026-02-18 14:35 | 46.23652 | 6.10745 | 1377 ft | 14 kts | 194° |
| 2026-02-18 14:35 | 46.23554 | 6.10712 | 1380 ft | 14 kts | 195° |
| 2026-02-18 14:35 | 46.23515 | 6.10697 | 1380 ft | 0 kts | 195° |
| 2026-02-18 14:36 | 46.23515 | 6.10696 | 1380 ft | 1 kts | 195° |
| 2026-02-18 14:36 | 46.23484 | 6.10684 | 1379 ft | 7 kts | 196° |
| 2026-02-18 14:36 | 46.23448 | 6.10668 | 1382 ft | 6 kts | 200° |
| 2026-02-18 14:37 | 46.23350 | 6.10570 | 1384 ft | 10 kts | 225° |
| 2026-02-18 14:37 | 46.23302 | 6.10515 | 1383 ft | 8 kts | 189° |
| 2026-02-18 14:37 | 46.23263 | 6.10553 | 1385 ft | 7 kts | 136° |
| 2026-02-18 14:38 | 46.23227 | 6.10603 | 1384 ft | 7 kts | 136° |
| 2026-02-18 14:38 | 46.23193 | 6.10650 | 1385 ft | 6 kts | 142° |
| 2026-02-18 14:38 | 46.23169 | 6.10653 | 1387 ft | 1 kts | 194° |
| 2026-02-18 14:38 | 46.23156 | 6.10642 | 1388 ft | 5 kts | 217° |
| 2026-02-18 14:39 | 46.23131 | 6.10607 | 1386 ft | 4 kts | 225° |
| 2026-02-18 14:39 | 46.23115 | 6.10583 | 1386 ft | 3 kts | 225° |
| 2026-02-18 14:39 | 46.23100 | 6.10566 | 1388 ft | 1 kts | 205° |
| 2026-02-18 14:39 | 46.23088 | 6.10572 | 1387 ft | 4 kts | 156° |
| 2026-02-18 14:40 | 46.23064 | 6.10606 | 1403 ft | 2 kts | 136° |
| 2026-02-18 14:40 | 46.23062 | 6.10608 | 1403 ft | 0 kts | 136° |
| 2026-02-18 14:40 | 46.23060 | 6.10611 | 1403 ft | 0 kts | 136° |